Time;durP1;ratioP1;P1;durP2;ratioP2;P2;SDS_P1;SDS_P2;PMS_P1;PMS_P2;Temp;Humidity;BMP_temperature;BMP_pressure;BME280_temperature;BME280_humidity;BME280_pressure;Samples;Min_cycle;Max_cycle;Signal;HPM_P1;HPM_P2
2023/03/26 00:01:22;;;;;;;18.48;9.50;;;;;;;;;;5070920;28;20429;-86
2023/03/26 00:03:52;;;;;;;16.30;8.05;;;;;;;;;;5070956;28;20462;-85
2023/03/26 00:06:20;;;;;;;14.07;7.88;;;;;;;;;;5070800;28;20384;-86
2023/03/26 00:08:46;;;;;;;13.82;7.30;;;;;;;;;;5070971;28;20427;-87
2023/03/26 00:11:13;;;;;;;8.23;5.03;;;;;;;;;;5070954;28;20414;-86
2023/03/26 00:13:42;;;;;;;9.38;5.25;;;;;;;;;;5056777;28;20375;-86
2023/03/26 00:16:08;;;;;;;8.45;4.40;;;;;;;;;;5070889;28;20421;-86
2023/03/26 00:18:34;;;;;;;7.47;3.67;;;;;;;;;;5070705;28;20382;-86
2023/03/26 00:21:03;;;;;;;4.80;2.65;;;;;;;;;;5070886;28;20478;-87
2023/03/26 00:23:30;;;;;;;5.60;2.40;;;;;;;;;;5070610;28;20411;-86
2023/03/26 00:25:56;;;;;;;4.82;2.20;;;;;;;;;;5069603;28;20387;-86
2023/03/26 00:28:22;;;;;;;3.73;1.60;;;;;;;;;;5070576;28;20868;-86
2023/03/26 00:30:49;;;;;;;4.95;1.73;;;;;;;;;;5070807;28;20379;-86
2023/03/26 00:33:16;;;;;;;3.85;1.50;;;;;;;;;;5070621;28;20404;-86
2023/03/26 00:35:45;;;;;;;4.65;1.38;;;;;;;;;;5070663;28;20383;-86
2023/03/26 00:38:12;;;;;;;4.10;1.40;;;;;;;;;;5070753;28;20379;-86
2023/03/26 00:40:43;;;;;;;3.40;1.58;;;;;;;;;;5070626;28;20376;-86
2023/03/26 00:43:17;;;;;;;3.42;1.40;;;;;;;;;;5070689;28;20470;-87
2023/03/26 00:45:44;;;;;;;3.63;1.70;;;;;;;;;;5072169;28;20379;-86
2023/03/26 00:48:10;;;;;;;4.03;1.57;;;;;;;;;;5074190;28;20490;-86
2023/03/26 00:50:36;;;;;;;3.42;1.50;;;;;;;;;;5074147;28;20379;-86
2023/03/26 00:53:02;;;;;;;3.70;1.70;;;;;;;;;;5074050;28;20462;-87
2023/03/26 00:55:28;;;;;;;4.45;1.63;;;;;;;;;;5073991;28;20911;-87
2023/03/26 00:57:55;;;;;;;5.65;2.70;;;;;;;;;;5074110;28;20537;-86
2023/03/26 01:00:27;;;;;;;5.53;2.50;;;;;;;;;;5074065;28;20419;-86
2023/03/26 01:02:54;;;;;;;5.15;1.95;;;;;;;;;;5073748;28;20380;-85
2023/03/26 01:05:35;;;;;;;4.78;2.20;;;;;;;;;;5073862;28;20384;-86
2023/03/26 01:08:04;;;;;;;3.67;2.00;;;;;;;;;;5073576;28;20456;-86
2023/03/26 01:10:37;;;;;;;4.63;1.93;;;;;;;;;;5073889;28;20414;-85
2023/03/26 01:13:03;;;;;;;5.55;1.90;;;;;;;;;;5073621;28;20367;-86
2023/03/26 01:15:29;;;;;;;5.18;2.75;;;;;;;;;;5072373;28;20380;-86
2023/03/26 01:17:56;;;;;;;6.32;2.65;;;;;;;;;;5073761;28;20384;-86
2023/03/26 01:20:25;;;;;;;3.33;1.80;;;;;;;;;;5073553;28;20387;-87
2023/03/26 01:22:55;;;;;;;3.92;1.75;;;;;;;;;;5073575;28;20382;-86
2023/03/26 01:25:22;;;;;;;4.05;1.83;;;;;;;;;;5073449;28;20457;-85
2023/03/26 01:27:49;;;;;;;4.57;1.80;;;;;;;;;;5072122;28;21215;-85
2023/03/26 01:30:22;;;;;;;6.05;1.70;;;;;;;;;;5070293;28;20380;-87
2023/03/26 01:32:51;;;;;;;4.90;1.50;;;;;;;;;;5073276;28;20470;-87
2023/03/26 01:35:24;;;;;;;5.20;1.83;;;;;;;;;;5073164;28;20861;-85
2023/03/26 01:37:51;;;;;;;3.65;1.65;;;;;;;;;;5073382;28;20453;-85
2023/03/26 01:40:24;;;;;;;3.88;1.73;;;;;;;;;;5063787;28;20404;-86
2023/03/26 01:43:01;;;;;;;3.57;1.60;;;;;;;;;;5071060;28;20372;-85
2023/03/26 01:45:29;;;;;;;3.15;1.48;;;;;;;;;;5065964;28;20470;-86
2023/03/26 01:47:56;;;;;;;3.97;1.75;;;;;;;;;;5073162;28;20499;-86
2023/03/26 01:50:22;;;;;;;5.05;1.70;;;;;;;;;;5073037;28;20494;-86
2023/03/26 01:52:48;;;;;;;4.93;1.63;;;;;;;;;;5073010;28;20380;-86
2023/03/26 01:55:14;;;;;;;3.80;1.50;;;;;;;;;;5073098;28;20458;-85
2023/03/26 01:58:04;;;;;;;4.00;1.80;;;;;;;;;;5072457;28;20473;-87
2023/03/26 02:00:32;;;;;;;3.65;1.50;;;;;;;;;;5071754;28;20407;-87
2023/03/26 02:03:07;;;;;;;3.47;1.58;;;;;;;;;;5072858;28;20437;-86
2023/03/26 02:05:36;;;;;;;3.42;1.40;;;;;;;;;;5066265;28;20396;-86
2023/03/26 02:08:08;;;;;;;3.60;1.60;;;;;;;;;;5058534;28;20401;-86
2023/03/26 02:10:42;;;;;;;3.58;1.80;;;;;;;;;;5071727;28;20455;-86
2023/03/26 02:13:09;;;;;;;3.00;1.77;;;;;;;;;;5072515;28;20380;-85
2023/03/26 02:15:35;;;;;;;3.88;1.88;;;;;;;;;;5078532;28;20409;-85
2023/03/26 02:18:02;;;;;;;4.80;2.53;;;;;;;;;;5076879;28;20464;-86
2023/03/26 02:20:28;;;;;;;5.60;3.00;;;;;;;;;;5072853;28;20380;-86
2023/03/26 02:22:54;;;;;;;4.80;2.88;;;;;;;;;;5073241;28;20379;-87
2023/03/26 02:25:21;;;;;;;4.53;2.50;;;;;;;;;;5072431;28;20415;-86
2023/03/26 02:27:48;;;;;;;4.40;2.40;;;;;;;;;;5072574;28;20404;-86
2023/03/26 02:30:16;;;;;;;5.40;2.85;;;;;;;;;;5072455;28;20380;-87
2023/03/26 02:32:42;;;;;;;4.03;2.33;;;;;;;;;;5072183;28;20884;-87
2023/03/26 02:35:09;;;;;;;4.18;1.65;;;;;;;;;;5072324;28;20910;-86
2023/03/26 02:37:35;;;;;;;4.13;1.70;;;;;;;;;;5072228;28;20388;-86
2023/03/26 02:40:03;;;;;;;4.80;1.73;;;;;;;;;;5072191;28;20467;-86
2023/03/26 02:42:29;;;;;;;4.57;1.60;;;;;;;;;;5072131;28;20475;-87
2023/03/26 02:44:55;;;;;;;3.22;1.40;;;;;;;;;;5072031;28;20465;-86
2023/03/26 02:47:21;;;;;;;4.43;1.70;;;;;;;;;;5071967;28;20415;-86
2023/03/26 02:49:47;;;;;;;3.85;1.45;;;;;;;;;;5072109;28;20376;-86
2023/03/26 02:52:17;;;;;;;4.15;1.50;;;;;;;;;;5071923;28;20459;-87
2023/03/26 02:54:43;;;;;;;2.38;1.15;;;;;;;;;;5071884;28;20379;-87
2023/03/26 02:57:09;;;;;;;5.07;1.75;;;;;;;;;;5071891;28;20459;-86
2023/03/26 02:59:35;;;;;;;4.57;1.60;;;;;;;;;;5071794;28;20474;-86
2023/03/26 03:02:01;;;;;;;4.35;1.55;;;;;;;;;;5071832;28;20383;-87
2023/03/26 03:04:27;;;;;;;5.53;1.70;;;;;;;;;;5071364;28;20403;-86
2023/03/26 03:06:56;;;;;;;5.45;1.52;;;;;;;;;;5071685;28;20410;-87
2023/03/26 03:09:22;;;;;;;5.38;1.60;;;;;;;;;;5070927;28;20399;-87
2023/03/26 03:11:48;;;;;;;2.55;1.30;;;;;;;;;;5071523;28;20376;-86
2023/03/26 03:14:14;;;;;;;4.28;1.85;;;;;;;;;;5070119;28;20453;-86
2023/03/26 03:16:40;;;;;;;2.45;1.40;;;;;;;;;;5071467;28;20495;-86
2023/03/26 03:19:06;;;;;;;3.50;1.67;;;;;;;;;;5071595;28;20453;-86
2023/03/26 03:21:32;;;;;;;6.57;2.00;;;;;;;;;;5070001;28;20429;-87
2023/03/26 03:23:58;;;;;;;4.70;2.53;;;;;;;;;;5071391;28;20380;-86
2023/03/26 03:26:28;;;;;;;4.53;1.80;;;;;;;;;;5071370;28;20737;-87
2023/03/26 03:28:56;;;;;;;3.43;2.13;;;;;;;;;;5071174;28;20410;-87
2023/03/26 03:31:23;;;;;;;3.83;2.03;;;;;;;;;;5071343;28;20375;-86
2023/03/26 03:33:49;;;;;;;3.08;2.00;;;;;;;;;;5060084;28;20400;-87
2023/03/26 03:36:17;;;;;;;3.63;1.67;;;;;;;;;;5066709;28;20401;-86
2023/03/26 03:38:43;;;;;;;2.93;1.70;;;;;;;;;;5067416;28;20550;-86
2023/03/26 03:41:10;;;;;;;3.78;1.90;;;;;;;;;;5070219;28;20379;-86
2023/03/26 03:43:36;;;;;;;4.50;2.30;;;;;;;;;;5071043;28;20372;-87
2023/03/26 03:46:02;;;;;;;4.88;2.85;;;;;;;;;;5068170;28;20418;-87
2023/03/26 03:48:29;;;;;;;6.40;2.75;;;;;;;;;;5062847;28;20409;-86
2023/03/26 03:50:55;;;;;;;5.25;2.78;;;;;;;;;;5069742;28;20379;-86
2023/03/26 03:53:25;;;;;;;5.55;3.00;;;;;;;;;;5070225;28;21615;-87
2023/03/26 03:55:55;;;;;;;8.68;3.40;;;;;;;;;;5071176;28;20383;-87
2023/03/26 03:58:22;;;;;;;5.57;3.38;;;;;;;;;;5071247;28;20848;-87
2023/03/26 04:00:49;;;;;;;5.40;3.03;;;;;;;;;;5071045;28;20868;-88
2023/03/26 04:03:15;;;;;;;4.88;2.80;;;;;;;;;;5070977;28;20386;-87
2023/03/26 04:05:42;;;;;;;5.35;2.67;;;;;;;;;;5070983;28;20394;-87
2023/03/26 04:08:08;;;;;;;5.20;2.87;;;;;;;;;;5070830;28;20431;-87
2023/03/26 04:10:34;;;;;;;4.63;2.63;;;;;;;;;;5071055;28;20384;-89
2023/03/26 04:13:00;;;;;;;4.95;2.40;;;;;;;;;;5070835;28;20372;-88
2023/03/26 04:15:26;;;;;;;6.88;2.78;;;;;;;;;;5069877;28;20395;-87
2023/03/26 04:17:52;;;;;;;7.13;3.08;;;;;;;;;;5070898;28;20436;-89
2023/03/26 04:20:18;;;;;;;6.03;2.85;;;;;;;;;;5063353;28;20493;-88
2023/03/26 04:22:45;;;;;;;6.45;2.80;;;;;;;;;;5057515;28;20386;-88
2023/03/26 04:25:12;;;;;;;7.20;2.83;;;;;;;;;;5070952;28;20411;-88
2023/03/26 04:27:40;;;;;;;6.43;3.10;;;;;;;;;;5073811;28;20411;-88
2023/03/26 04:30:08;;;;;;;7.57;3.20;;;;;;;;;;5056143;28;20379;-88
2023/03/26 04:32:37;;;;;;;5.13;2.83;;;;;;;;;;5056316;28;20383;-88
2023/03/26 04:35:04;;;;;;;6.47;2.90;;;;;;;;;;5073910;28;20457;-89
2023/03/26 04:37:33;;;;;;;5.53;2.80;;;;;;;;;;5074529;28;20410;-88
2023/03/26 04:40:09;;;;;;;7.85;2.90;;;;;;;;;;5074412;28;20869;-88
2023/03/26 04:42:36;;;;;;;4.73;2.60;;;;;;;;;;5074423;28;20379;-89
2023/03/26 04:45:03;;;;;;;4.82;2.60;;;;;;;;;;5074289;28;20379;-88
2023/03/26 04:47:30;;;;;;;4.70;2.60;;;;;;;;;;5074248;28;20803;-88
2023/03/26 04:49:56;;;;;;;5.05;2.50;;;;;;;;;;5074154;28;20394;-88
2023/03/26 04:52:22;;;;;;;6.50;2.88;;;;;;;;;;5055971;28;20873;-89
2023/03/26 04:54:48;;;;;;;4.30;2.47;;;;;;;;;;5074200;28;20382;-88
2023/03/26 04:57:20;;;;;;;6.13;2.53;;;;;;;;;;5068937;28;20375;-88
2023/03/26 04:59:46;;;;;;;5.97;2.78;;;;;;;;;;5074086;28;20451;-89
2023/03/26 05:02:13;;;;;;;5.00;2.47;;;;;;;;;;5073924;28;20471;-88
2023/03/26 05:04:38;;;;;;;4.15;2.40;;;;;;;;;;5073794;28;20387;-88
2023/03/26 05:07:05;;;;;;;5.53;2.80;;;;;;;;;;5074309;28;20422;-88
2023/03/26 05:09:30;;;;;;;4.37;2.40;;;;;;;;;;5072561;28;20948;-88
2023/03/26 05:11:57;;;;;;;4.45;2.60;;;;;;;;;;5073755;28;20390;-88
2023/03/26 05:14:23;;;;;;;5.30;2.90;;;;;;;;;;5073748;28;20372;-87
2023/03/26 05:16:49;;;;;;;5.68;2.78;;;;;;;;;;5073748;28;20408;-88
2023/03/26 05:19:15;;;;;;;5.15;3.05;;;;;;;;;;5073781;28;20390;-88
2023/03/26 05:21:41;;;;;;;5.63;2.60;;;;;;;;;;5055509;28;20384;-89
2023/03/26 05:24:07;;;;;;;6.93;2.67;;;;;;;;;;5073659;28;20384;-89
2023/03/26 05:26:33;;;;;;;4.63;2.40;;;;;;;;;;5073487;28;20522;-88
2023/03/26 05:29:01;;;;;;;3.90;2.17;;;;;;;;;;5074096;28;20912;-88
2023/03/26 05:31:30;;;;;;;3.83;2.33;;;;;;;;;;5073241;28;20387;-88
2023/03/26 05:33:56;;;;;;;4.22;2.45;;;;;;;;;;5074495;28;20410;-89
2023/03/26 05:36:23;;;;;;;4.72;2.47;;;;;;;;;;5074633;28;20380;-88
2023/03/26 05:38:51;;;;;;;5.47;2.25;;;;;;;;;;5074007;28;20379;-88
2023/03/26 05:41:17;;;;;;;4.20;2.20;;;;;;;;;;5070635;28;20379;-88
2023/03/26 05:43:47;;;;;;;4.35;2.35;;;;;;;;;;5071554;28;20386;-89
2023/03/26 05:46:14;;;;;;;3.92;2.42;;;;;;;;;;5073563;28;20836;-87
2023/03/26 05:48:40;;;;;;;5.70;2.42;;;;;;;;;;5073130;28;20466;-88
2023/03/26 05:51:06;;;;;;;3.80;2.50;;;;;;;;;;5073214;28;20513;-88
2023/03/26 05:53:33;;;;;;;4.90;2.53;;;;;;;;;;5073108;28;20376;-89
2023/03/26 05:55:59;;;;;;;4.22;2.30;;;;;;;;;;5072991;28;20435;-87
2023/03/26 05:58:26;;;;;;;4.43;2.20;;;;;;;;;;5073235;28;20399;-89
2023/03/26 06:01:07;;;;;;;4.90;2.50;;;;;;;;;;5073017;28;20430;-87
2023/03/26 06:03:33;;;;;;;4.72;2.85;;;;;;;;;;5054971;28;20745;-88
2023/03/26 06:05:59;;;;;;;4.15;2.40;;;;;;;;;;5072774;28;20412;-88
2023/03/26 06:08:26;;;;;;;5.68;2.90;;;;;;;;;;5072685;28;20414;-88
2023/03/26 06:10:57;;;;;;;6.13;3.05;;;;;;;;;;5072883;28;20733;-88
2023/03/26 06:13:24;;;;;;;7.03;3.30;;;;;;;;;;5072691;28;20450;-87
2023/03/26 06:15:50;;;;;;;5.68;3.50;;;;;;;;;;5072613;28;20384;-87
2023/03/26 06:18:16;;;;;;;5.38;3.15;;;;;;;;;;5072538;28;20406;-88
2023/03/26 06:20:42;;;;;;;5.93;3.58;;;;;;;;;;5072538;28;20779;-87
2023/03/26 06:23:09;;;;;;;5.63;3.15;;;;;;;;;;5072342;28;20467;-87
2023/03/26 06:25:36;;;;;;;6.57;3.38;;;;;;;;;;5072575;28;20823;-87
2023/03/26 06:28:02;;;;;;;9.20;3.90;;;;;;;;;;5072323;28;20411;-89
2023/03/26 06:30:28;;;;;;;5.57;3.10;;;;;;;;;;5072282;28;20392;-87
2023/03/26 06:32:54;;;;;;;6.40;3.45;;;;;;;;;;5072056;28;20399;-88
2023/03/26 06:35:20;;;;;;;8.20;4.07;;;;;;;;;;5072347;28;20375;-88
2023/03/26 06:37:46;;;;;;;6.88;3.80;;;;;;;;;;5072162;28;20372;-88
2023/03/26 06:40:12;;;;;;;7.50;3.72;;;;;;;;;;5072092;28;20906;-88
2023/03/26 06:42:38;;;;;;;7.00;3.58;;;;;;;;;;5072007;28;20379;-88
2023/03/26 06:45:04;;;;;;;7.78;3.80;;;;;;;;;;5072143;28;20380;-88
2023/03/26 06:47:30;;;;;;;7.80;3.78;;;;;;;;;;5071886;28;20380;-88
2023/03/26 06:49:56;;;;;;;7.57;3.95;;;;;;;;;;5071993;28;20376;-87
2023/03/26 06:52:22;;;;;;;6.80;3.92;;;;;;;;;;5070367;28;20396;-88
2023/03/26 06:54:48;;;;;;;9.32;4.53;;;;;;;;;;5071914;28;20382;-88
2023/03/26 06:57:15;;;;;;;5.90;4.10;;;;;;;;;;5071812;28;20376;-89
2023/03/26 06:59:41;;;;;;;6.47;4.35;;;;;;;;;;5071802;28;20387;-88
2023/03/26 07:02:07;;;;;;;7.90;4.27;;;;;;;;;;5071861;28;20384;-88
2023/03/26 07:04:33;;;;;;;7.35;3.78;;;;;;;;;;5071430;28;20476;-90
2023/03/26 07:06:59;;;;;;;3.72;3.00;;;;;;;;;;5053745;28;20410;-89
2023/03/26 07:09:29;;;;;;;5.97;3.50;;;;;;;;;;5071644;28;20957;-90
2023/03/26 07:11:55;;;;;;;6.47;3.38;;;;;;;;;;5071534;28;20390;-90
2023/03/26 07:14:21;;;;;;;5.77;3.20;;;;;;;;;;5071708;28;20383;-90
2023/03/26 07:16:47;;;;;;;3.67;2.83;;;;;;;;;;5071475;28;20447;-89
2023/03/26 07:19:13;;;;;;;6.82;3.65;;;;;;;;;;5071705;28;20860;-89
2023/03/26 07:21:39;;;;;;;7.00;3.57;;;;;;;;;;5071436;28;20376;-89
2023/03/26 07:24:05;;;;;;;5.55;3.72;;;;;;;;;;5071394;28;20419;-90
2023/03/26 07:26:38;;;;;;;5.83;3.30;;;;;;;;;;5070038;28;20376;-89
2023/03/26 07:29:12;;;;;;;5.18;2.70;;;;;;;;;;5049910;28;20443;-89
2023/03/26 07:31:38;;;;;;;3.90;2.42;;;;;;;;;;5071415;28;20407;-89
2023/03/26 07:34:04;;;;;;;3.60;1.97;;;;;;;;;;5063699;28;20392;-90
2023/03/26 07:36:30;;;;;;;2.90;2.00;;;;;;;;;;5071355;28;20434;-90
2023/03/26 07:38:59;;;;;;;2.85;1.80;;;;;;;;;;5071292;28;20783;-90
2023/03/26 07:41:48;;;;;;;4.00;1.80;;;;;;;;;;5071346;28;20375;-89
2023/03/26 07:44:17;;;;;;;4.23;1.53;;;;;;;;;;5053418;28;20423;-89
2023/03/26 07:46:46;;;;;;;2.95;1.50;;;;;;;;;;5060415;28;20864;-88
2023/03/26 07:49:13;;;;;;;2.95;1.55;;;;;;;;;;5071221;28;20407;-89
2023/03/26 07:51:39;;;;;;;3.00;1.27;;;;;;;;;;5071259;28;20414;-89
2023/03/26 07:54:05;;;;;;;2.78;1.40;;;;;;;;;;5073025;28;20952;-88
2023/03/26 07:56:58;;;;;;;2.10;1.40;;;;;;;;;;5076629;28;20384;-88
2023/03/26 07:59:36;;;;;;;2.13;1.23;;;;;;;;;;5074710;28;20884;-88
2023/03/26 08:02:21;;;;;;;2.15;1.20;;;;;;;;;;5077815;28;20783;-88
2023/03/26 08:05:04;;;;;;;2.00;1.27;;;;;;;;;;5077749;28;20394;-88
2023/03/26 08:07:33;;;;;;;2.78;1.48;;;;;;;;;;5060025;28;20399;-88
2023/03/26 08:10:14;;;;;;;2.88;1.42;;;;;;;;;;5077612;28;20418;-89
2023/03/26 08:12:56;;;;;;;2.30;1.40;;;;;;;;;;5077777;28;20390;-88
2023/03/26 08:15:28;;;;;;;1.38;1.10;;;;;;;;;;5063720;28;20411;-88
2023/03/26 08:17:57;;;;;;;3.00;1.37;;;;;;;;;;5077747;28;20459;-89
2023/03/26 08:20:35;;;;;;;1.85;1.50;;;;;;;;;;5077560;28;20388;-88
2023/03/26 08:23:06;;;;;;;3.53;1.50;;;;;;;;;;5077533;28;20388;-89
2023/03/26 08:26:08;;;;;;;3.05;1.52;;;;;;;;;;5077630;28;20375;-87
2023/03/26 08:28:54;;;;;;;2.33;1.53;;;;;;;;;;4995788;28;20422;-88
2023/03/26 08:31:26;;;;;;;2.20;1.50;;;;;;;;;;5072231;28;20458;-90
2023/03/26 08:33:52;;;;;;;3.17;1.90;;;;;;;;;;5077000;28;20415;-89
2023/03/26 08:36:18;;;;;;;2.72;1.55;;;;;;;;;;5076468;28;20387;-88
2023/03/26 08:38:44;;;;;;;2.93;1.57;;;;;;;;;;5077371;28;20444;-88
2023/03/26 08:41:10;;;;;;;3.35;1.67;;;;;;;;;;5077468;28;20494;-88
2023/03/26 08:43:42;;;;;;;2.95;1.45;;;;;;;;;;5077368;28;20892;-86
2023/03/26 08:46:11;;;;;;;3.85;1.90;;;;;;;;;;5077491;28;20398;-87
2023/03/26 08:48:56;;;;;;;3.58;2.63;;;;;;;;;;5079325;28;20403;-90
2023/03/26 08:51:26;;;;;;;3.88;2.00;;;;;;;;;;5080347;28;20383;-87
2023/03/26 08:54:02;;;;;;;3.90;2.13;;;;;;;;;;5078460;28;20379;-85
2023/03/26 08:56:51;;;;;;;4.18;2.25;;;;;;;;;;5083725;28;20794;-86
2023/03/26 08:59:36;;;;;;;3.28;1.98;;;;;;;;;;5050915;28;20706;-86
2023/03/26 09:02:17;;;;;;;2.75;1.90;;;;;;;;;;5078050;28;20725;-85
2023/03/26 09:04:43;;;;;;;3.22;1.90;;;;;;;;;;5076510;28;20857;-86
2023/03/26 09:07:09;;;;;;;2.85;1.80;;;;;;;;;;5072845;28;20475;-86
2023/03/26 09:09:35;;;;;;;3.53;2.15;;;;;;;;;;5072652;28;20977;-85
2023/03/26 09:12:05;;;;;;;4.40;2.60;;;;;;;;;;5073989;28;20801;-86
2023/03/26 09:14:49;;;;;;;2.60;1.83;;;;;;;;;;5073900;28;20441;-86
2023/03/26 09:17:21;;;;;;;2.72;1.70;;;;;;;;;;5074181;28;20376;-85
2023/03/26 09:20:00;;;;;;;3.45;1.65;;;;;;;;;;5073927;28;20404;-87
2023/03/26 09:22:26;;;;;;;3.88;1.95;;;;;;;;;;5073824;28;20380;-86
2023/03/26 09:24:55;;;;;;;2.95;1.80;;;;;;;;;;5070907;28;20397;-87
2023/03/26 09:27:35;;;;;;;6.10;3.77;;;;;;;;;;5042726;28;20904;-87
2023/03/26 09:30:24;;;;;;;5.60;3.00;;;;;;;;;;5073572;28;20395;-86
2023/03/26 09:33:06;;;;;;;2.60;1.50;;;;;;;;;;5073073;28;20438;-86
2023/03/26 09:35:51;;;;;;;2.25;1.35;;;;;;;;;;5071730;28;20856;-85
2023/03/26 09:38:35;;;;;;;2.00;1.30;;;;;;;;;;5073594;28;20367;-85
2023/03/26 09:41:10;;;;;;;2.90;1.27;;;;;;;;;;5073288;28;20371;-85
2023/03/26 09:43:58;;;;;;;2.15;1.80;;;;;;;;;;5056183;28;20413;-85
2023/03/26 09:46:27;;;;;;;2.13;1.50;;;;;;;;;;5073384;28;20395;-85
2023/03/26 09:49:21;;;;;;;1.80;1.20;;;;;;;;;;5073175;28;20479;-85
2023/03/26 09:51:50;;;;;;;1.67;1.15;;;;;;;;;;5073357;28;20372;-86
2023/03/26 09:54:35;;;;;;;1.40;0.90;;;;;;;;;;5067812;28;20388;-85
2023/03/26 09:57:04;;;;;;;0.90;0.70;;;;;;;;;;5073783;28;20729;-85
2023/03/26 09:59:49;;;;;;;0.82;0.70;;;;;;;;;;5072941;28;20382;-85
2023/03/26 10:02:32;;;;;;;2.50;1.10;;;;;;;;;;5072957;28;20376;-85
2023/03/26 10:05:19;;;;;;;1.10;1.00;;;;;;;;;;5072895;28;20382;-85
2023/03/26 10:08:03;;;;;;;1.30;1.00;;;;;;;;;;5032139;28;20411;-85
2023/03/26 10:10:29;;;;;;;1.50;1.40;;;;;;;;;;5073004;28;20379;-86
2023/03/26 10:13:28;;;;;;;2.55;1.63;;;;;;;;;;5072834;28;20376;-85
2023/03/26 10:16:12;;;;;;;2.15;1.60;;;;;;;;;;5039158;28;20453;-86
2023/03/26 10:18:57;;;;;;;3.35;2.22;;;;;;;;;;5072240;28;20380;-85
2023/03/26 10:21:31;;;;;;;2.22;2.03;;;;;;;;;;5072744;28;20376;-85
2023/03/26 10:23:57;;;;;;;2.75;2.30;;;;;;;;;;5072530;28;20379;-85
2023/03/26 10:26:32;;;;;;;3.77;2.77;;;;;;;;;;5072514;28;20424;-85
2023/03/26 10:29:04;;;;;;;3.05;2.22;;;;;;;;;;5072496;28;20400;-85
2023/03/26 10:31:45;;;;;;;3.60;2.50;;;;;;;;;;5072407;28;20384;-85
2023/03/26 10:34:14;;;;;;;4.10;2.75;;;;;;;;;;5072046;28;20400;-85
2023/03/26 10:36:43;;;;;;;3.30;2.20;;;;;;;;;;5071263;28;20757;-84
2023/03/26 10:39:15;;;;;;;3.10;2.30;;;;;;;;;;5072254;28;20392;-85
2023/03/26 10:41:50;;;;;;;2.20;1.90;;;;;;;;;;5072450;28;20426;-85
2023/03/26 10:44:24;;;;;;;2.80;1.90;;;;;;;;;;5058300;28;20448;-85
2023/03/26 10:47:07;;;;;;;2.85;2.00;;;;;;;;;;5072270;28;20383;-85
2023/03/26 10:49:38;;;;;;;4.53;2.20;;;;;;;;;;5072193;28;20407;-85
2023/03/26 10:52:08;;;;;;;4.35;2.30;;;;;;;;;;5070833;28;20495;-85
2023/03/26 10:54:49;;;;;;;3.22;1.85;;;;;;;;;;5072031;28;20418;-85
2023/03/26 10:57:35;;;;;;;3.20;1.77;;;;;;;;;;5071943;28;20864;-85
2023/03/26 11:00:12;;;;;;;3.42;1.85;;;;;;;;;;5061406;28;20391;-85
2023/03/26 11:02:41;;;;;;;2.50;1.80;;;;;;;;;;5070705;28;20392;-85
2023/03/26 11:05:37;;;;;;;3.78;1.83;;;;;;;;;;5071869;28;20390;-85
2023/03/26 11:08:09;;;;;;;4.22;1.60;;;;;;;;;;5054089;28;20945;-84
2023/03/26 11:10:42;;;;;;;3.28;1.88;;;;;;;;;;5070493;28;20745;-85
2023/03/26 11:13:17;;;;;;;3.83;1.80;;;;;;;;;;5071563;28;20387;-85
2023/03/26 11:15:43;;;;;;;2.33;1.55;;;;;;;;;;5071782;28;20384;-85
2023/03/26 11:18:24;;;;;;;2.33;1.40;;;;;;;;;;5071620;28;20391;-85
2023/03/26 11:20:55;;;;;;;3.90;1.35;;;;;;;;;;5071601;28;20384;-85
2023/03/26 11:23:21;;;;;;;3.78;1.45;;;;;;;;;;5071492;28;20423;-85
2023/03/26 11:26:05;;;;;;;3.83;1.60;;;;;;;;;;5069607;28;20376;-85
2023/03/26 11:28:41;;;;;;;2.40;1.50;;;;;;;;;;5067783;28;20415;-84
2023/03/26 11:31:31;;;;;;;2.95;1.48;;;;;;;;;;5071526;28;20725;-85
2023/03/26 11:34:02;;;;;;;3.33;1.55;;;;;;;;;;5066848;23;20431;-89
2023/03/26 11:36:34;;;;;;;2.60;1.45;;;;;;;;;;5063092;28;20732;-88
2023/03/26 11:39:03;;;;;;;3.38;1.85;;;;;;;;;;5070984;28;20384;-90
2023/03/26 11:41:30;;;;;;;2.90;1.58;;;;;;;;;;5050056;28;20404;-89
2023/03/26 11:43:58;;;;;;;2.55;1.50;;;;;;;;;;5062616;28;20432;-89
2023/03/26 11:46:25;;;;;;;2.72;1.50;;;;;;;;;;5049455;28;20386;-89
2023/03/26 11:48:58;;;;;;;2.70;1.30;;;;;;;;;;5043825;28;20405;-89
2023/03/26 11:51:31;;;;;;;3.53;1.70;;;;;;;;;;5040241;28;20376;-91
2023/03/26 11:53:57;;;;;;;3.13;1.60;;;;;;;;;;5031364;28;20382;-89
2023/03/26 11:56:42;;;;;;;3.55;1.50;;;;;;;;;;5033948;28;20381;-89
2023/03/26 11:59:10;;;;;;;3.05;1.40;;;;;;;;;;5039025;28;20425;-90
2023/03/26 12:01:50;;;;;;;2.70;1.20;;;;;;;;;;5035079;28;20389;-89
2023/03/26 12:04:17;;;;;;;3.28;1.27;;;;;;;;;;5039194;28;20725;-89
2023/03/26 12:07:09;;;;;;;2.83;1.27;;;;;;;;;;5031182;28;20744;-88
2023/03/26 12:09:35;;;;;;;2.50;1.10;;;;;;;;;;5027773;28;20422;-88
2023/03/26 12:12:05;;;;;;;2.80;1.25;;;;;;;;;;5030845;28;20389;-89
2023/03/26 12:14:34;;;;;;;2.97;0.98;;;;;;;;;;5042666;28;20388;-89
2023/03/26 12:17:05;;;;;;;2.10;1.10;;;;;;;;;;5032412;28;20471;-89
2023/03/26 12:19:35;;;;;;;2.80;1.20;;;;;;;;;;5041887;28;20388;-90
2023/03/26 12:22:01;;;;;;;2.20;0.90;;;;;;;;;;5033188;28;20554;-89
2023/03/26 12:24:28;;;;;;;3.38;1.10;;;;;;;;;;5040581;28;20377;-89
2023/03/26 12:27:00;;;;;;;2.00;0.93;;;;;;;;;;5034840;28;20386;-89
2023/03/26 12:29:27;;;;;;;1.80;0.98;;;;;;;;;;5030719;28;20469;-88
2023/03/26 12:32:02;;;;;;;2.10;0.68;;;;;;;;;;5045909;28;20907;-89
2023/03/26 12:34:35;;;;;;;1.27;0.68;;;;;;;;;;5036026;28;20762;-89
2023/03/26 12:37:02;;;;;;;1.45;0.90;;;;;;;;;;5050622;28;20454;-89
2023/03/26 12:39:39;;;;;;;1.60;0.60;;;;;;;;;;5030641;28;20401;-90
2023/03/26 12:42:06;;;;;;;2.40;0.65;;;;;;;;;;5034664;28;20375;-88
2023/03/26 12:44:50;;;;;;;1.83;0.77;;;;;;;;;;5034338;28;20390;-88
2023/03/26 12:47:16;;;;;;;2.15;0.70;;;;;;;;;;5035892;28;20448;-89
2023/03/26 12:49:43;;;;;;;2.28;0.90;;;;;;;;;;5047681;28;20497;-88
2023/03/26 12:52:27;;;;;;;2.05;0.65;;;;;;;;;;5034282;28;20909;-88
2023/03/26 12:54:53;;;;;;;2.90;0.80;;;;;;;;;;5041517;28;20386;-89
2023/03/26 12:57:37;;;;;;;1.80;0.75;;;;;;;;;;5040881;28;20791;-88
2023/03/26 13:00:20;;;;;;;2.47;0.80;;;;;;;;;;5042010;28;20452;-88
2023/03/26 13:03:05;;;;;;;1.10;0.70;;;;;;;;;;5037972;28;20371;-89
2023/03/26 13:05:34;;;;;;;1.85;0.77;;;;;;;;;;5033791;28;20871;-88
2023/03/26 13:08:19;;;;;;;2.00;0.70;;;;;;;;;;5049148;28;20998;-90
2023/03/26 13:11:04;;;;;;;2.65;0.95;;;;;;;;;;5034019;28;20470;-90
2023/03/26 13:13:36;;;;;;;1.85;0.80;;;;;;;;;;5033872;28;20379;-88
2023/03/26 13:16:21;;;;;;;1.85;0.90;;;;;;;;;;5033810;28;20382;-89
2023/03/26 13:18:53;;;;;;;2.60;0.90;;;;;;;;;;5033811;28;20987;-88
2023/03/26 13:21:25;;;;;;;1.73;0.70;;;;;;;;;;5033540;28;20445;-88
2023/03/26 13:24:10;;;;;;;2.05;0.73;;;;;;;;;;5033465;28;20383;-91
2023/03/26 13:26:54;;;;;;;2.60;0.90;;;;;;;;;;5048429;28;20388;-89
2023/03/26 13:29:55;;;;;;;2.40;0.75;;;;;;;;;;5033576;28;20407;-90
2023/03/26 13:32:25;;;;;;;2.75;0.80;;;;;;;;;;5024744;28;20483;-90
2023/03/26 13:35:07;;;;;;;2.22;0.80;;;;;;;;;;5047296;28;20401;-89
2023/03/26 13:37:36;;;;;;;1.65;0.82;;;;;;;;;;5045856;28;20398;-89
2023/03/26 13:40:05;;;;;;;2.35;1.00;;;;;;;;;;5043533;28;20582;-89
2023/03/26 13:42:40;;;;;;;2.17;0.80;;;;;;;;;;5033329;28;20372;-89
2023/03/26 13:45:21;;;;;;;2.78;0.95;;;;;;;;;;5033109;28;20383;-90
2023/03/26 13:47:49;;;;;;;2.53;0.83;;;;;;;;;;5037872;28;20735;-88
2023/03/26 13:50:15;;;;;;;3.35;1.00;;;;;;;;;;5042348;28;20744;-88
2023/03/26 13:52:51;;;;;;;2.33;1.00;;;;;;;;;;5036862;28;20750;-88
2023/03/26 13:55:31;;;;;;;2.42;1.00;;;;;;;;;;5042374;28;20391;-88
2023/03/26 13:58:16;;;;;;;2.25;1.00;;;;;;;;;;5041046;28;20476;-88
2023/03/26 14:00:52;;;;;;;1.87;0.97;;;;;;;;;;5039870;28;20863;-87
2023/03/26 14:03:32;;;;;;;2.20;1.08;;;;;;;;;;5033273;28;20407;-88
2023/03/26 14:05:59;;;;;;;2.60;1.00;;;;;;;;;;5032576;28;20383;-89
2023/03/26 14:08:30;;;;;;;2.72;1.00;;;;;;;;;;5032882;28;20449;-89
2023/03/26 14:10:58;;;;;;;2.53;0.83;;;;;;;;;;5032981;28;20500;-89
2023/03/26 14:13:29;;;;;;;2.20;0.90;;;;;;;;;;5038232;28;20381;-89
2023/03/26 14:16:03;;;;;;;2.05;0.90;;;;;;;;;;5040511;28;20387;-90
2023/03/26 14:18:29;;;;;;;1.80;0.70;;;;;;;;;;5032526;28;20736;-88
2023/03/26 14:21:08;;;;;;;2.10;0.65;;;;;;;;;;5032636;28;20498;-90
2023/03/26 14:23:52;;;;;;;1.25;0.68;;;;;;;;;;5032620;28;20383;-89
2023/03/26 14:26:26;;;;;;;1.75;0.80;;;;;;;;;;5032547;28;20387;-90
2023/03/26 14:29:04;;;;;;;1.90;0.80;;;;;;;;;;5032388;28;20431;-88
2023/03/26 14:31:50;;;;;;;2.15;1.00;;;;;;;;;;5032193;28;20376;-88
2023/03/26 14:34:22;;;;;;;2.28;1.00;;;;;;;;;;5036158;28;20413;-89
2023/03/26 14:37:07;;;;;;;1.98;0.85;;;;;;;;;;5035975;28;20407;-89
2023/03/26 14:39:57;;;;;;;1.77;0.80;;;;;;;;;;5032316;28;20735;-89
2023/03/26 14:42:39;;;;;;;2.35;0.70;;;;;;;;;;5032299;28;20379;-88
2023/03/26 14:45:19;;;;;;;2.00;0.70;;;;;;;;;;5024027;28;21031;-89
2023/03/26 14:47:51;;;;;;;2.17;0.82;;;;;;;;;;5036349;28;20389;-89
2023/03/26 14:50:34;;;;;;;2.50;0.90;;;;;;;;;;5056437;28;20395;-90
2023/03/26 14:53:03;;;;;;;2.27;0.70;;;;;;;;;;5031873;28;20875;-89
2023/03/26 14:55:52;;;;;;;1.95;0.80;;;;;;;;;;5031914;28;20405;-88
2023/03/26 14:58:32;;;;;;;2.03;0.90;;;;;;;;;;5024246;28;20437;-88
2023/03/26 15:01:17;;;;;;;1.05;0.25;;;;;;;;;;5045711;28;20920;-89
2023/03/26 15:04:02;;;;;;;0.70;0.30;;;;;;;;;;5030854;28;20383;-89
2023/03/26 15:06:46;;;;;;;0.85;0.38;;;;;;;;;;5045717;28;20379;-87
2023/03/26 15:09:31;;;;;;;0.82;0.20;;;;;;;;;;5031655;28;20494;-87